Time,TemperatureF,DewpointF,PressureIn,WindDirection,WindDirectionDegrees,WindSpeedMPH,WindSpeedGustMPH,Humidity,HourlyPrecipIn,Conditions,Clouds,dailyrainin,SoftwareType,DateUTC
2013-01-27 00:01:00,49.0,46.0,29.61,NE,53,0.0,2.0,91,0.00,,,0.12,,2013-01-26 22:01:00,
2013-01-27 00:11:00,49.0,46.0,29.61,NE,53,0.0,2.0,91,0.00,,,0.12,,2013-01-26 22:11:00,
2013-01-27 00:21:00,49.0,47.0,29.62,North,1,0.0,0.0,92,0.00,,,0.12,,2013-01-26 22:21:00,
2013-01-27 00:31:00,49.0,46.0,29.62,North,355,0.0,3.0,91,0.00,,,0.12,,2013-01-26 22:31:00,
2013-01-27 00:41:00,49.0,46.0,29.62,North,355,0.0,3.0,91,0.00,,,0.12,,2013-01-26 22:41:00,
2013-01-27 00:52:00,49.0,46.0,29.62,NE,40,0.0,1.0,90,0.00,,,0.12,,2013-01-26 22:52:00,
2013-01-27 01:01:00,49.0,46.0,29.63,NE,44,1.0,4.0,88,0.00,,,0.12,,2013-01-26 23:01:00,
2013-01-27 01:11:00,49.0,46.0,29.63,NE,44,1.0,4.0,88,0.00,,,0.12,,2013-01-26 23:11:00,
2013-01-27 01:21:00,49.0,46.0,29.63,East,95,1.0,2.0,88,0.00,,,0.12,,2013-01-26 23:21:00,
2013-01-27 01:32:00,49.0,45.0,29.63,ENE,74,1.0,4.0,87,0.00,,,0.12,,2013-01-26 23:32:00,
2013-01-27 01:41:00,49.0,45.0,29.63,ENE,74,1.0,4.0,87,0.00,,,0.12,,2013-01-26 23:41:00,
2013-01-27 01:52:00,49.0,45.0,29.64,ENE,58,1.0,3.0,87,0.00,,,0.12,,2013-01-26 23:52:00,
2013-01-27 02:01:00,49.0,45.0,29.64,NNE,28,1.0,3.0,87,0.00,,,0.12,,2013-01-27 00:01:00,
2013-01-27 02:11:00,49.0,45.0,29.64,NNE,28,1.0,3.0,87,0.00,,,0.12,,2013-01-27 00:11:00,
2013-01-27 02:21:00,49.0,45.0,29.65,NE,41,1.0,3.0,86,0.00,,,0.12,,2013-01-27 00:21:00,
2013-01-27 02:31:00,49.0,45.0,29.65,NE,36,1.0,3.0,86,0.00,,,0.12,,2013-01-27 00:31:00,
2013-01-27 02:41:00,49.0,45.0,29.65,NE,36,1.0,3.0,86,0.00,,,0.12,,2013-01-27 00:41:00,
2013-01-27 02:52:00,49.0,45.0,29.66,ESE,108,0.0,2.0,86,0.00,,,0.12,,2013-01-27 00:52:00,
2013-01-27 03:01:00,49.0,45.0,29.66,WNW,283,1.0,5.0,86,0.00,,,0.12,,2013-01-27 01:01:00,
2013-01-27 03:11:00,49.0,45.0,29.66,WNW,283,1.0,5.0,86,0.00,,,0.12,,2013-01-27 01:11:00,
2013-01-27 03:22:00,49.0,45.0,29.67,NE,56,0.0,0.0,86,0.00,,,0.12,,2013-01-27 01:22:00,
2013-01-27 03:31:00,48.0,44.0,29.67,East,95,0.0,3.0,85,0.00,,,0.12,,2013-01-27 01:31:00,
2013-01-27 03:41:00,48.0,44.0,29.67,East,95,0.0,3.0,85,0.00,,,0.12,,2013-01-27 01:41:00,
2013-01-27 03:52:00,48.0,44.0,29.68,NE,45,0.0,2.0,86,0.00,,,0.12,,2013-01-27 01:52:00,
2013-01-27 04:01:00,48.0,44.0,29.67,ENE,68,1.0,4.0,85,0.00,,,0.12,,2013-01-27 02:01:00,
2013-01-27 04:11:00,48.0,44.0,29.67,ENE,68,1.0,4.0,85,0.00,,,0.12,,2013-01-27 02:11:00,
2013-01-27 04:21:00,49.0,44.0,29.67,NE,36,1.0,4.0,83,0.00,,,0.12,,2013-01-27 02:21:00,
2013-01-27 04:31:00,49.0,44.0,29.68,WSW,254,0.0,2.0,84,0.00,,,0.12,,2013-01-27 02:31:00,
2013-01-27 04:41:00,49.0,44.0,29.68,WSW,254,0.0,2.0,84,0.00,,,0.12,,2013-01-27 02:41:00,
2013-01-27 04:52:00,49.0,44.0,29.68,SW,224,0.0,2.0,84,0.00,,,0.12,,2013-01-27 02:52:00,
2013-01-27 05:01:00,49.0,44.0,29.68,SW,225,0.0,0.0,84,0.00,,,0.12,,2013-01-27 03:01:00,
2013-01-27 05:11:00,49.0,44.0,29.68,SW,225,0.0,0.0,84,0.00,,,0.12,,2013-01-27 03:11:00,
2013-01-27 05:21:00,48.0,43.0,29.68,SSW,211,1.0,2.0,84,0.00,,,0.12,,2013-01-27 03:21:00,
2013-01-27 05:31:00,49.0,44.0,29.69,NNE,30,1.0,2.0,83,0.00,,,0.12,,2013-01-27 03:31:00,
2013-01-27 05:41:00,49.0,44.0,29.69,NNE,30,1.0,2.0,83,0.00,,,0.12,,2013-01-27 03:41:00,
2013-01-27 05:51:00,49.0,44.0,29.70,WNW,303,1.0,4.0,82,0.00,,,0.12,,2013-01-27 03:51:00,
2013-01-27 06:01:00,49.0,44.0,29.70,East,99,0.0,0.0,82,0.00,,,0.12,,2013-01-27 04:01:00,
2013-01-27 06:11:00,49.0,44.0,29.70,East,99,0.0,0.0,82,0.00,,,0.12,,2013-01-27 04:11:00,
2013-01-27 06:21:00,49.0,44.0,29.70,West,270,0.0,0.0,83,0.00,,,0.12,,2013-01-27 04:21:00,
2013-01-27 06:31:00,48.0,43.0,29.70,East,83,0.0,0.0,83,0.00,,,0.12,,2013-01-27 04:31:00,
2013-01-27 06:41:00,48.0,43.0,29.70,East,83,0.0,0.0,83,0.00,,,0.12,,2013-01-27 04:41:00,
2013-01-27 06:52:00,48.0,43.0,29.71,WSW,247,0.0,2.0,83,0.00,,,0.12,,2013-01-27 04:52:00,
2013-01-27 07:02:00,48.0,42.0,29.72,North,350,1.0,3.0,81,0.00,,,0.12,,2013-01-27 05:02:00,
2013-01-27 07:11:00,48.0,42.0,29.72,North,350,1.0,3.0,81,0.00,,,0.12,,2013-01-27 05:11:00,
2013-01-27 07:22:00,48.0,42.0,29.72,NE,43,2.0,4.0,80,0.00,,,0.12,,2013-01-27 05:22:00,
2013-01-27 07:31:00,48.0,42.0,29.72,NE,41,1.0,3.0,80,0.00,,,0.12,,2013-01-27 05:31:00,
2013-01-27 07:41:00,48.0,42.0,29.72,NE,41,1.0,3.0,80,0.00,,,0.12,,2013-01-27 05:41:00,
2013-01-27 07:52:00,48.0,42.0,29.74,NNE,18,0.0,2.0,81,0.00,,,0.12,,2013-01-27 05:52:00,
2013-01-27 08:01:00,48.0,43.0,29.74,ENE,60,0.0,1.0,82,0.00,,,0.12,,2013-01-27 06:01:00,
2013-01-27 08:11:00,48.0,43.0,29.74,ENE,60,0.0,1.0,82,0.00,,,0.12,,2013-01-27 06:11:00,
2013-01-27 08:21:00,48.0,42.0,29.75,NE,49,1.0,3.0,79,0.00,,,0.12,,2013-01-27 06:21:00,
2013-01-27 08:31:00,49.0,43.0,29.75,NE,46,1.0,3.0,80,0.00,,,0.12,,2013-01-27 06:31:00,
2013-01-27 08:41:00,49.0,43.0,29.75,NE,46,1.0,3.0,80,0.00,,,0.12,,2013-01-27 06:41:00,
2013-01-27 08:52:00,49.0,43.0,29.76,ENE,63,0.0,2.0,79,0.00,,,0.12,,2013-01-27 06:52:00,
2013-01-27 09:01:00,50.0,44.0,29.77,North,0,0.0,0.0,79,0.00,,,0.12,,2013-01-27 07:01:00,
2013-01-27 09:13:00,50.0,44.0,29.77,North,0,0.0,0.0,79,0.00,,,0.12,,2013-01-27 07:13:00,
2013-01-27 09:21:00,51.0,43.0,29.77,North,0,0.0,0.0,75,0.00,,,0.12,,2013-01-27 07:21:00,
2013-01-27 09:31:00,52.0,44.0,29.78,North,0,0.0,0.0,73,0.00,,,0.12,,2013-01-27 07:31:00,
2013-01-27 09:41:00,52.0,44.0,29.78,North,0,0.0,0.0,73,0.00,,,0.12,,2013-01-27 07:41:00,
2013-01-27 09:52:00,53.0,44.0,29.78,North,10,1.0,3.0,72,0.00,,,0.12,,2013-01-27 07:52:00,
2013-01-27 10:01:00,53.0,44.0,29.78,NNW,331,0.0,3.0,71,0.00,,,0.12,,2013-01-27 08:01:00,
2013-01-27 10:11:00,53.0,44.0,29.78,NNW,331,0.0,3.0,71,0.00,,,0.12,,2013-01-27 08:11:00,
2013-01-27 10:21:00,52.0,42.0,29.79,NE,52,2.0,4.0,69,0.00,,,0.12,,2013-01-27 08:21:00,
2013-01-27 10:31:00,53.0,43.0,29.79,North,352,0.0,0.0,70,0.00,,,0.12,,2013-01-27 08:31:00,
2013-01-27 10:41:00,53.0,43.0,29.79,North,352,0.0,0.0,70,0.00,,,0.12,,2013-01-27 08:41:00,
2013-01-27 10:52:00,53.0,43.0,29.79,NNE,18,1.0,3.0,70,0.00,,,0.12,,2013-01-27 08:52:00,
2013-01-27 11:02:00,53.0,43.0,29.80,NNE,31,1.0,3.0,69,0.00,,,0.12,,2013-01-27 09:02:00,
2013-01-27 11:11:00,53.0,43.0,29.80,NNE,31,1.0,3.0,69,0.00,,,0.12,,2013-01-27 09:11:00,
2013-01-27 11:21:00,53.0,42.0,29.80,ENE,68,1.0,2.0,67,0.00,,,0.12,,2013-01-27 09:21:00,
2013-01-27 11:31:00,53.0,42.0,29.79,ENE,61,2.0,3.0,67,0.00,,,0.12,,2013-01-27 09:31:00,
2013-01-27 11:41:00,53.0,42.0,29.79,ENE,61,2.0,3.0,67,0.00,,,0.12,,2013-01-27 09:41:00,
2013-01-27 11:51:00,53.0,43.0,29.80,NE,47,1.0,3.0,68,0.00,,,0.12,,2013-01-27 09:51:00,
2013-01-27 12:01:00,54.0,43.0,29.79,East,84,1.0,3.0,65,0.00,,,0.12,,2013-01-27 10:01:00,
2013-01-27 12:11:00,54.0,43.0,29.79,ENE,74,1.0,4.0,65,0.00,,,0.12,,2013-01-27 10:11:00,
2013-01-27 12:21:00,54.0,43.0,29.79,ENE,74,1.0,4.0,65,0.00,,,0.12,,2013-01-27 10:21:00,
2013-01-27 12:31:00,55.0,43.0,29.79,West,267,1.0,3.0,63,0.00,,,0.12,,2013-01-27 10:31:00,
2013-01-27 12:41:00,55.0,43.0,29.79,West,267,1.0,3.0,63,0.00,,,0.12,,2013-01-27 10:41:00,
2013-01-27 12:52:00,55.0,43.0,29.79,West,273,1.0,3.0,63,0.00,,,0.12,,2013-01-27 10:52:00,
2013-01-27 13:01:00,56.0,44.0,29.78,West,270,0.0,3.0,63,0.00,,,0.12,,2013-01-27 11:01:00,
2013-01-27 13:11:00,54.0,43.0,29.79,West,270,3.0,3.0,65,0.00,,,0.12,,2013-01-27 11:11:00,
2013-01-27 13:21:00,54.0,43.0,29.79,West,270,3.0,3.0,65,0.00,,,0.12,,2013-01-27 11:21:00,
2013-01-27 13:31:00,54.0,43.0,29.79,WNW,297,2.0,3.0,66,0.00,,,0.12,,2013-01-27 11:31:00,
2013-01-27 13:41:00,54.0,43.0,29.79,WNW,297,2.0,3.0,66,0.00,,,0.12,,2013-01-27 11:41:00,
2013-01-27 13:52:00,54.0,43.0,29.79,West,272,2.0,5.0,67,0.00,,,0.12,,2013-01-27 11:52:00,
2013-01-27 14:02:00,54.0,43.0,29.79,West,259,1.0,3.0,67,0.00,,,0.12,,2013-01-27 12:02:00,
2013-01-27 14:11:00,54.0,43.0,29.79,West,259,1.0,3.0,67,0.00,,,0.12,,2013-01-27 12:11:00,
2013-01-27 14:21:00,54.0,44.0,29.79,NNW,337,0.0,0.0,68,0.00,,,0.12,,2013-01-27 12:21:00,
2013-01-27 14:32:00,54.0,43.0,29.79,NE,52,0.0,1.0,66,0.00,,,0.12,,2013-01-27 12:32:00,
2013-01-27 14:41:00,54.0,43.0,29.79,NE,52,0.0,1.0,66,0.00,,,0.12,,2013-01-27 12:41:00,
2013-01-27 14:52:00,53.0,42.0,29.79,ENE,58,2.0,6.0,66,0.00,,,0.12,,2013-01-27 12:52:00,
2013-01-27 15:01:00,53.0,42.0,29.80,ENE,63,3.0,7.0,66,0.00,,,0.12,,2013-01-27 13:01:00,
2013-01-27 15:11:00,53.0,42.0,29.80,ENE,63,3.0,7.0,66,0.00,,,0.12,,2013-01-27 13:11:00,
2013-01-27 15:22:00,53.0,43.0,29.80,NE,56,5.0,9.0,69,0.00,,,0.12,,2013-01-27 13:22:00,
2013-01-27 15:31:00,53.0,43.0,29.80,NE,55,4.0,8.0,68,0.00,,,0.12,,2013-01-27 13:31:00,
2013-01-27 15:41:00,53.0,43.0,29.80,NE,55,4.0,8.0,68,0.00,,,0.12,,2013-01-27 13:41:00,
2013-01-27 15:52:00,53.0,43.0,29.80,NNE,16,5.0,11.0,69,0.00,,,0.12,,2013-01-27 13:52:00,
2013-01-27 16:01:00,53.0,43.0,29.81,NE,49,5.0,9.0,68,0.00,,,0.12,,2013-01-27 14:01:00,
2013-01-27 16:11:00,53.0,43.0,29.81,NE,49,5.0,9.0,68,0.00,,,0.12,,2013-01-27 14:11:00,
2013-01-27 16:21:00,52.0,42.0,29.81,NNE,30,5.0,9.0,68,0.00,,,0.12,,2013-01-27 14:21:00,
2013-01-27 16:31:00,52.0,42.0,29.81,NNE,30,5.0,6.0,68,0.00,,,0.12,,2013-01-27 14:31:00,
2013-01-27 16:42:00,52.0,42.0,29.81,NNE,30,5.0,6.0,68,0.00,,,0.12,,2013-01-27 14:42:00,
2013-01-27 16:52:00,52.0,42.0,29.82,NE,44,3.0,7.0,69,0.00,,,0.12,,2013-01-27 14:52:00,
2013-01-27 17:01:00,52.0,42.0,29.82,NE,52,4.0,6.0,69,0.00,,,0.12,,2013-01-27 15:01:00,
2013-01-27 17:11:00,52.0,42.0,29.82,NE,52,4.0,6.0,69,0.00,,,0.12,,2013-01-27 15:11:00,
2013-01-27 17:21:00,52.0,43.0,29.82,NE,48,4.0,6.0,70,0.00,,,0.12,,2013-01-27 15:21:00,
2013-01-27 17:31:00,51.0,43.0,29.83,North,2,3.0,6.0,73,0.00,,,0.12,,2013-01-27 15:31:00,
2013-01-27 17:42:00,51.0,43.0,29.83,North,2,3.0,6.0,73,0.00,,,0.12,,2013-01-27 15:42:00,
2013-01-27 17:52:00,51.0,43.0,29.83,ENE,67,3.0,5.0,74,0.00,,,0.12,,2013-01-27 15:52:00,
2013-01-27 18:01:00,51.0,43.0,29.83,NE,41,4.0,7.0,73,0.00,,,0.12,,2013-01-27 16:01:00,
2013-01-27 18:11:00,51.0,43.0,29.83,NE,41,4.0,7.0,73,0.00,,,0.12,,2013-01-27 16:11:00,
2013-01-27 18:21:00,51.0,43.0,29.83,NE,38,2.0,5.0,73,0.00,,,0.12,,2013-01-27 16:21:00,
2013-01-27 18:31:00,51.0,43.0,29.84,NNE,31,1.0,3.0,74,0.00,,,0.12,,2013-01-27 16:31:00,
2013-01-27 18:41:00,51.0,43.0,29.84,NNE,31,1.0,3.0,74,0.00,,,0.12,,2013-01-27 16:41:00,
2013-01-27 18:52:00,51.0,43.0,29.85,NE,47,1.0,4.0,75,0.00,,,0.12,,2013-01-27 16:52:00,
2013-01-27 19:01:00,51.0,43.0,29.85,NNE,20,3.0,6.0,75,0.00,,,0.12,,2013-01-27 17:01:00,
2013-01-27 19:11:00,51.0,43.0,29.85,NNE,20,3.0,6.0,75,0.00,,,0.12,,2013-01-27 17:11:00,
2013-01-27 19:21:00,51.0,43.0,29.85,NNE,18,3.0,5.0,75,0.00,,,0.12,,2013-01-27 17:21:00,
2013-01-27 19:31:00,51.0,43.0,29.86,NNE,29,3.0,5.0,75,0.00,,,0.12,,2013-01-27 17:31:00,
2013-01-27 19:41:00,51.0,43.0,29.86,NNE,29,3.0,5.0,75,0.00,,,0.12,,2013-01-27 17:41:00,
2013-01-27 19:52:00,50.0,42.0,29.87,NE,39,3.0,6.0,75,0.00,,,0.12,,2013-01-27 17:52:00,
2013-01-27 20:01:00,50.0,43.0,29.86,NE,53,3.0,5.0,76,0.00,,,0.12,,2013-01-27 18:01:00,
2013-01-27 20:11:00,50.0,43.0,29.86,NE,53,3.0,5.0,76,0.00,,,0.12,,2013-01-27 18:11:00,
2013-01-27 20:22:00,50.0,43.0,29.87,NNE,27,3.0,5.0,76,0.00,,,0.10,,2013-01-27 18:22:00,
2013-01-27 20:31:00,50.0,43.0,29.87,NNE,12,2.0,6.0,76,0.00,,,0.08,,2013-01-27 18:31:00,
2013-01-27 20:41:00,50.0,43.0,29.87,NNE,12,2.0,6.0,76,0.00,,,0.08,,2013-01-27 18:41:00,
2013-01-27 20:52:00,50.0,42.0,29.87,NE,43,3.0,7.0,75,0.00,,,0.07,,2013-01-27 18:52:00,
2013-01-27 21:01:00,50.0,42.0,29.88,North,11,3.0,5.0,75,0.00,,,0.05,,2013-01-27 19:01:00,
2013-01-27 21:11:00,50.0,42.0,29.88,North,11,3.0,5.0,75,0.00,,,0.05,,2013-01-27 19:11:00,
2013-01-27 21:21:00,50.0,42.0,29.87,NNE,25,1.0,4.0,75,0.00,,,0.04,,2013-01-27 19:21:00,
2013-01-27 21:31:00,50.0,43.0,29.88,NNE,12,2.0,5.0,76,0.00,,,0.03,,2013-01-27 19:31:00,
2013-01-27 21:41:00,50.0,43.0,29.88,NNE,12,2.0,5.0,76,0.00,,,0.03,,2013-01-27 19:41:00,
2013-01-27 21:52:00,50.0,43.0,29.88,NW,323,2.0,6.0,76,0.00,,,0.02,,2013-01-27 19:52:00,
2013-01-27 22:02:00,50.0,42.0,29.88,NE,42,3.0,5.0,75,0.00,,,0.02,,2013-01-27 20:02:00,
2013-01-27 22:11:00,50.0,42.0,29.88,NE,42,3.0,5.0,75,0.00,,,0.02,,2013-01-27 20:11:00,
2013-01-27 22:21:00,50.0,43.0,29.88,NNE,12,2.0,6.0,76,0.00,,,0.01,,2013-01-27 20:21:00,
2013-01-27 22:31:00,50.0,43.0,29.88,NNE,28,2.0,3.0,77,0.00,,,0.01,,2013-01-27 20:31:00,
2013-01-27 22:41:00,50.0,43.0,29.88,NNE,28,2.0,3.0,77,0.00,,,0.01,,2013-01-27 20:41:00,
2013-01-27 22:52:00,50.0,43.0,29.89,NE,38,0.0,3.0,77,0.00,,,0.01,,2013-01-27 20:52:00,
2013-01-27 23:01:00,50.0,43.0,29.89,SW,230,0.0,1.0,77,0.00,,,0.00,,2013-01-27 21:01:00,
2013-01-27 23:11:00,50.0,43.0,29.89,SW,230,0.0,1.0,77,0.00,,,0.00,,2013-01-27 21:11:00,
2013-01-27 23:21:00,50.0,43.0,29.89,ENE,61,0.0,1.0,78,0.00,,,0.00,,2013-01-27 21:21:00,
2013-01-27 23:32:00,50.0,43.0,29.89,NE,36,0.0,3.0,78,0.00,,,0.00,,2013-01-27 21:32:00,
2013-01-27 23:42:00,50.0,43.0,29.89,NE,36,0.0,3.0,78,0.00,,,0.00,,2013-01-27 21:42:00,
2013-01-27 23:52:00,50.0,43.0,29.89,NNE,23,1.0,3.0,77,0.00,,,0.00,,2013-01-27 21:52:00,